createdAt,value
2018-05-10T00:02:17.306Z,16.70
2018-05-10T00:04:46.123Z,16.70
2018-05-10T00:07:14.182Z,16.70
2018-05-10T00:09:42.459Z,16.70
2018-05-10T00:12:10.503Z,16.60
2018-05-10T00:14:39.324Z,16.70
2018-05-10T00:17:07.395Z,16.70
2018-05-10T00:19:35.436Z,16.80
2018-05-10T00:22:03.535Z,16.90
2018-05-10T00:24:31.546Z,16.80
2018-05-10T00:26:59.617Z,16.70
2018-05-10T00:29:27.667Z,16.60
2018-05-10T00:31:55.710Z,16.30
2018-05-10T00:34:23.751Z,16.30
2018-05-10T00:36:51.805Z,16.30
2018-05-10T00:39:23.749Z,16.30
2018-05-10T00:41:51.810Z,16.40
2018-05-10T00:44:20.844Z,16.40
2018-05-10T00:46:48.900Z,16.40
2018-05-10T00:49:16.941Z,16.40
2018-05-10T00:51:44.990Z,16.30
2018-05-10T00:54:24.940Z,16.40
2018-05-10T00:56:52.996Z,16.30
2018-05-10T00:59:21.817Z,16.20
2018-05-10T01:01:49.884Z,16.20
2018-05-10T01:04:17.942Z,16.30
2018-05-10T01:06:45.986Z,16.20
2018-05-10T01:09:14.810Z,16.30
2018-05-10T01:11:42.848Z,16.20
2018-05-10T01:14:11.674Z,16.30
2018-05-10T01:16:39.717Z,16.30
2018-05-10T01:19:08.534Z,16.30
2018-05-10T01:21:36.592Z,16.30
2018-05-10T01:24:04.650Z,16.30
2018-05-10T01:26:32.687Z,16.20
2018-05-10T01:29:00.729Z,16.10
2018-05-10T01:31:28.769Z,16.10
2018-05-10T01:33:56.825Z,16.20
2018-05-10T01:36:25.640Z,16.10
2018-05-10T01:38:53.698Z,16.10
2018-05-10T01:41:21.729Z,16.00
2018-05-10T01:43:49.788Z,15.80
2018-05-10T01:46:18.868Z,15.80
2018-05-10T01:48:46.919Z,15.80
2018-05-10T01:51:14.954Z,15.80
2018-05-10T01:53:43.765Z,15.70
2018-05-10T01:56:11.914Z,15.70
2018-05-10T01:58:40.728Z,15.70
2018-05-10T02:01:08.769Z,15.70
2018-05-10T02:03:40.529Z,15.60
2018-05-10T02:06:09.342Z,15.60
2018-05-10T02:08:37.758Z,15.50
2018-05-10T02:11:05.793Z,15.60
2018-05-10T02:13:33.856Z,15.60
2018-05-10T02:16:02.653Z,15.50
2018-05-10T02:18:30.702Z,15.50
2018-05-10T02:20:59.509Z,15.50
2018-05-10T02:23:27.557Z,15.50
2018-05-10T02:25:56.433Z,15.50
2018-05-10T02:28:24.488Z,15.50
2018-05-10T02:30:52.551Z,15.50
2018-05-10T02:33:20.591Z,15.40
2018-05-10T02:35:48.641Z,15.50
2018-05-10T02:38:16.849Z,15.50
2018-05-10T02:40:45.663Z,15.50
2018-05-10T02:43:14.828Z,15.50
2018-05-10T02:45:42.885Z,15.60
2018-05-10T02:48:12.567Z,15.60
2018-05-10T02:50:41.761Z,15.60
2018-05-10T02:53:10.561Z,15.70
2018-05-10T02:55:39.372Z,15.70
2018-05-10T02:58:07.417Z,15.70
2018-05-10T03:00:36.275Z,15.70
2018-05-10T03:03:04.306Z,15.70
2018-05-10T03:05:33.123Z,15.70
2018-05-10T03:08:01.166Z,15.70
2018-05-10T03:10:29.230Z,15.70
2018-05-10T03:12:59.994Z,15.70
2018-05-10T03:15:28.069Z,15.70
2018-05-10T03:17:56.417Z,15.80
2018-05-10T03:20:24.464Z,15.70
2018-05-10T03:22:52.513Z,15.70
2018-05-10T03:25:20.573Z,15.70
2018-05-10T03:27:48.628Z,15.70
2018-05-10T03:30:16.696Z,15.70
2018-05-10T03:32:44.745Z,15.80
2018-05-10T03:35:12.802Z,15.80
2018-05-10T03:37:40.849Z,15.80
2018-05-10T03:40:09.675Z,15.80
2018-05-10T03:42:37.721Z,15.80
2018-05-10T03:45:06.545Z,15.80
2018-05-10T03:47:34.594Z,15.80
2018-05-10T03:50:02.645Z,15.80
2018-05-10T03:52:31.462Z,15.80
2018-05-10T03:54:59.512Z,15.80
2018-05-10T03:57:28.347Z,15.80
2018-05-10T03:59:56.380Z,15.70
2018-05-10T04:02:36.026Z,15.70
2018-05-10T04:05:16.694Z,15.70
2018-05-10T04:07:56.711Z,15.70
2018-05-10T04:10:36.634Z,15.70
2018-05-10T04:13:04.673Z,15.70
2018-05-10T04:15:32.740Z,15.70
2018-05-10T04:18:00.783Z,15.70
2018-05-10T04:20:29.185Z,15.70
2018-05-10T04:22:57.235Z,15.80
2018-05-10T04:25:26.055Z,15.80
2018-05-10T04:27:54.690Z,15.80
2018-05-10T04:30:22.715Z,15.80
2018-05-10T04:32:52.556Z,15.80
2018-05-10T04:35:20.613Z,15.90
2018-05-10T04:37:51.244Z,15.80
2018-05-10T04:40:19.305Z,15.80
2018-05-10T04:42:47.368Z,15.80
2018-05-10T04:45:15.433Z,15.80
2018-05-10T04:47:43.491Z,15.90
2018-05-10T04:50:11.541Z,15.90
2018-05-10T04:52:40.364Z,15.90
2018-05-10T04:55:09.175Z,16.00
2018-05-10T04:57:37.237Z,16.00
2018-05-10T05:00:05.280Z,16.10
2018-05-10T05:02:33.333Z,16.10
2018-05-10T05:05:02.146Z,16.00
2018-05-10T05:07:30.201Z,16.00
2018-05-10T05:09:58.242Z,15.90
2018-05-10T05:12:26.302Z,15.90
2018-05-10T05:14:54.361Z,16.10
2018-05-10T05:17:22.411Z,16.10
2018-05-10T05:19:51.227Z,16.10
2018-05-10T05:22:19.273Z,16.10
2018-05-10T05:24:47.316Z,16.00
2018-05-10T05:27:15.374Z,15.90
2018-05-10T05:29:44.180Z,15.80
2018-05-10T05:32:12.424Z,15.70
2018-05-10T05:34:41.768Z,15.70
2018-05-10T05:37:10.597Z,15.80
2018-05-10T05:39:38.634Z,15.70
2018-05-10T05:42:06.698Z,15.80
2018-05-10T05:44:34.746Z,15.70
2018-05-10T05:47:03.628Z,15.90
2018-05-10T05:49:31.676Z,15.90
2018-05-10T05:51:59.737Z,16.00
2018-05-10T05:54:27.781Z,16.10
2018-05-10T05:56:56.611Z,16.10
2018-05-10T05:59:24.653Z,16.10
2018-05-10T06:01:53.850Z,16.30
2018-05-10T06:04:21.904Z,16.50
2018-05-10T06:06:54.673Z,16.40
2018-05-10T06:09:22.738Z,16.50
2018-05-10T06:11:50.781Z,16.40
2018-05-10T06:14:19.602Z,16.30
2018-05-10T06:16:47.638Z,16.30
2018-05-10T06:19:16.473Z,16.40
2018-05-10T06:21:44.810Z,16.40
2018-05-10T06:24:13.627Z,16.40
2018-05-10T06:26:41.666Z,16.40
2018-05-10T06:29:09.721Z,16.60
2018-05-10T06:31:37.769Z,16.60
2018-05-10T06:34:05.877Z,16.60
2018-05-10T06:36:33.879Z,16.50
2018-05-10T06:39:01.939Z,16.50
2018-05-10T06:41:30.812Z,16.40
2018-05-10T06:43:58.797Z,16.30
2018-05-10T06:46:26.845Z,16.50
2018-05-10T06:48:54.914Z,16.50
2018-05-10T06:51:22.969Z,16.60
2018-05-10T06:53:51.026Z,16.70
2018-05-10T06:56:19.062Z,16.70
2018-05-10T06:58:47.109Z,16.90
2018-05-10T07:01:15.921Z,17.00
2018-05-10T07:03:43.993Z,17.00
2018-05-10T07:06:12.028Z,17.20
2018-05-10T07:08:40.858Z,17.30
2018-05-10T07:11:08.912Z,17.30
2018-05-10T07:13:37.297Z,17.30
2018-05-10T07:16:05.447Z,17.40
2018-05-10T07:18:33.497Z,17.30
2018-05-10T07:21:01.548Z,17.40
2018-05-10T07:23:29.645Z,17.30
2018-05-10T07:25:57.704Z,17.40
2018-05-10T07:28:26.158Z,17.40
2018-05-10T07:30:54.212Z,17.40
2018-05-10T07:33:22.277Z,17.40
2018-05-10T07:35:50.339Z,17.30
2018-05-10T07:38:19.176Z,17.30
2018-05-10T07:40:47.236Z,17.30
2018-05-10T07:43:15.308Z,17.30
2018-05-10T07:45:43.405Z,17.20
2018-05-10T07:48:11.489Z,17.30
2018-05-10T07:50:39.546Z,17.10
2018-05-10T07:53:07.636Z,17.10
2018-05-10T07:55:35.633Z,16.90
2018-05-10T07:58:04.223Z,16.80
2018-05-10T08:00:32.270Z,16.60
2018-05-10T08:03:01.100Z,16.40
2018-05-10T08:05:29.945Z,16.30
2018-05-10T08:07:58.026Z,16.30
2018-05-10T08:10:26.111Z,16.20
2018-05-10T08:12:54.153Z,16.20
2018-05-10T08:15:22.986Z,16.20
2018-05-10T08:17:51.039Z,16.20
2018-05-10T08:20:19.094Z,16.10
2018-05-10T08:22:47.185Z,16.10
2018-05-10T08:25:15.273Z,16.10
2018-05-10T08:27:47.013Z,16.10
2018-05-10T08:30:15.140Z,16.10
2018-05-10T08:32:43.124Z,16.10
2018-05-10T08:35:11.951Z,15.60
2018-05-10T08:37:40.775Z,15.60
2018-05-10T08:40:08.879Z,15.50
2018-05-10T08:42:37.739Z,15.40
2018-05-10T08:45:05.867Z,15.40
2018-05-10T08:47:33.919Z,15.40
2018-05-10T08:50:02.733Z,15.30
2018-05-10T08:52:30.798Z,15.30
2018-05-10T08:54:58.861Z,15.20
2018-05-10T08:57:26.941Z,15.00
2018-05-10T08:59:55.040Z,15.10
2018-05-10T09:02:24.057Z,15.00
2018-05-10T09:04:52.236Z,14.90
2018-05-10T09:07:20.302Z,14.80
2018-05-10T09:09:48.333Z,14.70
2018-05-10T09:12:16.407Z,14.70
2018-05-10T09:14:44.463Z,14.70
2018-05-10T09:17:12.493Z,14.60
2018-05-10T09:19:40.938Z,14.70
2018-05-10T09:22:08.994Z,14.60
2018-05-10T09:24:37.066Z,14.50
2018-05-10T09:27:05.123Z,14.40
2018-05-10T09:29:33.200Z,14.40
2018-05-10T09:32:01.262Z,14.50
2018-05-10T09:34:29.318Z,14.50
2018-05-10T09:36:57.372Z,14.50
2018-05-10T09:39:26.265Z,14.50
2018-05-10T09:41:54.292Z,14.50
2018-05-10T09:44:22.330Z,14.50
2018-05-10T09:46:50.459Z,14.60
2018-05-10T09:49:18.510Z,14.60
2018-05-10T09:51:46.586Z,14.70
2018-05-10T09:54:14.625Z,14.80
2018-05-10T09:56:42.673Z,14.90
2018-05-10T09:59:10.721Z,15.00
2018-05-10T10:01:39.357Z,15.00
2018-05-10T10:04:07.412Z,14.80
2018-05-10T10:06:35.465Z,14.80
2018-05-10T10:09:05.132Z,15.10
2018-05-10T10:11:33.195Z,15.10
2018-05-10T10:14:01.231Z,15.20
2018-05-10T10:16:29.284Z,15.20
2018-05-10T10:18:58.104Z,15.50
2018-05-10T10:21:26.195Z,15.50
2018-05-10T10:23:54.258Z,15.60
2018-05-10T10:26:22.337Z,15.60
2018-05-10T10:28:50.481Z,15.60
2018-05-10T10:31:18.574Z,15.80
2018-05-10T10:33:46.633Z,16.00
2018-05-10T10:36:14.955Z,16.10
2018-05-10T10:38:42.993Z,16.20
2018-05-10T10:41:11.051Z,16.20
2018-05-10T10:43:39.856Z,16.30
2018-05-10T10:46:07.917Z,16.20
2018-05-10T10:48:35.966Z,16.50
2018-05-10T10:51:04.026Z,16.70
2018-05-10T10:53:32.064Z,16.50
2018-05-10T10:56:00.123Z,16.80
2018-05-10T10:58:28.163Z,17.10
2018-05-10T11:00:56.979Z,17.60
2018-05-10T11:03:25.009Z,17.60
2018-05-10T11:05:53.078Z,17.60
2018-05-10T11:08:21.117Z,17.60
2018-05-10T11:10:49.953Z,17.90
2018-05-10T11:13:18.001Z,17.90
2018-05-10T11:15:46.247Z,18.20
2018-05-10T11:18:14.298Z,18.30
2018-05-10T11:20:42.347Z,18.30
2018-05-10T11:23:10.406Z,18.20
2018-05-10T11:25:38.448Z,18.30
2018-05-10T11:28:06.496Z,18.30
2018-05-10T11:30:34.537Z,18.30
2018-05-10T11:33:19.512Z,18.50
2018-05-10T11:35:47.534Z,18.60
2018-05-10T11:38:18.409Z,18.40
2018-05-10T11:40:49.356Z,18.10
2018-05-10T11:43:17.420Z,18.00
2018-05-10T11:45:46.494Z,17.70
2018-05-10T11:48:14.558Z,17.60
2018-05-10T11:50:44.117Z,17.80
2018-05-10T11:53:12.392Z,18.00
2018-05-10T11:55:40.465Z,18.00
2018-05-10T11:58:09.052Z,17.80
2018-05-10T12:00:37.102Z,17.80
2018-05-10T12:03:05.167Z,17.80
2018-05-10T12:05:33.533Z,17.70
2018-05-10T12:08:02.353Z,17.30
2018-05-10T12:10:30.411Z,17.30
2018-05-10T12:12:58.481Z,17.30
2018-05-10T12:15:26.560Z,17.40
2018-05-10T12:17:54.644Z,17.60
2018-05-10T12:20:22.738Z,17.50
2018-05-10T12:22:51.209Z,17.40
2018-05-10T12:25:20.020Z,17.60
2018-05-10T12:27:48.082Z,17.50
2018-05-10T12:30:16.945Z,17.60
2018-05-10T12:32:44.983Z,17.60
2018-05-10T12:35:13.026Z,17.50
2018-05-10T12:37:41.313Z,17.60
2018-05-10T12:40:09.373Z,17.60
2018-05-10T12:42:37.427Z,17.70
2018-05-10T12:45:06.234Z,17.90
2018-05-10T12:47:34.369Z,17.90
2018-05-10T12:50:02.424Z,17.90
2018-05-10T12:52:30.489Z,17.70
2018-05-10T12:54:58.529Z,17.80
2018-05-10T12:57:29.835Z,17.60
2018-05-10T12:59:58.657Z,17.30
2018-05-10T13:02:26.692Z,17.30
2018-05-10T13:04:55.509Z,16.90
2018-05-10T13:07:23.559Z,16.90
2018-05-10T13:09:52.395Z,16.60
2018-05-10T13:12:20.517Z,16.60
2018-05-10T13:14:48.586Z,16.50
2018-05-10T13:17:18.455Z,16.40
2018-05-10T13:19:46.509Z,16.40
2018-05-10T13:22:15.324Z,16.60
2018-05-10T13:24:43.393Z,16.60
2018-05-10T13:27:11.442Z,16.50
2018-05-10T13:29:39.497Z,16.50
2018-05-10T13:32:07.573Z,16.60
2018-05-10T13:34:35.640Z,16.90
2018-05-10T13:37:03.747Z,17.20
2018-05-10T13:39:31.818Z,17.90
2018-05-10T13:41:59.875Z,18.30
2018-05-10T13:44:28.021Z,18.70
2018-05-10T13:46:56.106Z,18.60
2018-05-10T13:49:24.163Z,18.40
2018-05-10T13:51:52.213Z,17.90
2018-05-10T13:54:21.034Z,17.30
2018-05-10T13:56:49.101Z,17.30
2018-05-10T13:59:17.156Z,17.00
2018-05-10T14:01:45.205Z,16.60
2018-05-10T14:04:13.262Z,16.50
2018-05-10T14:06:41.315Z,16.40
2018-05-10T14:09:09.374Z,16.40
2018-05-10T14:11:37.413Z,16.20
2018-05-10T14:14:05.461Z,16.10
2018-05-10T14:16:34.296Z,15.90
2018-05-10T14:19:02.344Z,15.90
2018-05-10T14:21:30.409Z,15.80
2018-05-10T14:23:59.221Z,15.50
2018-05-10T14:26:27.270Z,15.40
2018-05-10T14:28:56.083Z,15.20
2018-05-10T14:31:24.136Z,15.10
2018-05-10T14:33:52.181Z,14.90
2018-05-10T14:36:21.001Z,14.90
2018-05-10T14:38:49.161Z,14.90
2018-05-10T14:41:17.215Z,15.00
2018-05-10T14:43:45.252Z,15.00
2018-05-10T14:46:13.321Z,15.00
2018-05-10T14:48:41.373Z,14.90
2018-05-10T14:51:09.936Z,14.90
2018-05-10T14:53:37.968Z,15.00
2018-05-10T14:56:06.066Z,14.70
2018-05-10T14:58:34.099Z,14.60
2018-05-10T15:01:02.148Z,14.30
2018-05-10T15:03:30.193Z,14.30
2018-05-10T15:05:58.249Z,14.20
2018-05-10T15:08:27.066Z,14.10
2018-05-10T15:10:55.881Z,13.90
2018-05-10T15:13:23.934Z,13.90
2018-05-10T15:15:51.997Z,13.80
2018-05-10T15:18:20.046Z,13.70
2018-05-10T15:20:48.094Z,13.60
2018-05-10T15:23:16.909Z,13.50
2018-05-10T15:25:45.737Z,13.60
2018-05-10T15:28:13.846Z,13.50
2018-05-10T15:30:42.688Z,13.30
2018-05-10T15:33:10.721Z,13.30
2018-05-10T15:35:38.784Z,13.10
2018-05-10T15:38:07.594Z,12.90
2018-05-10T15:40:36.879Z,12.90
2018-05-10T15:43:05.893Z,12.80
2018-05-10T15:45:33.941Z,12.80
2018-05-10T15:48:01.998Z,12.80
2018-05-10T15:50:30.812Z,12.50
2018-05-10T15:52:58.866Z,12.50
2018-05-10T15:55:29.222Z,12.50
2018-05-10T15:57:57.261Z,12.50
2018-05-10T16:00:25.318Z,12.60
2018-05-10T16:02:55.426Z,12.70
2018-05-10T16:05:23.473Z,12.50
2018-05-10T16:07:51.512Z,12.50
2018-05-10T16:10:20.889Z,12.40
2018-05-10T16:12:48.900Z,12.40
2018-05-10T16:15:16.941Z,12.30
2018-05-10T16:17:45.721Z,12.40
2018-05-10T16:20:13.786Z,12.30
2018-05-10T16:22:41.849Z,12.30
2018-05-10T16:25:09.923Z,12.40
2018-05-10T16:27:38.734Z,12.50
2018-05-10T16:30:07.553Z,12.50
2018-05-10T16:32:35.598Z,12.50
2018-05-10T16:35:06.254Z,12.30
2018-05-10T16:37:34.428Z,12.30
2018-05-10T16:40:02.536Z,12.40
2018-05-10T16:42:32.005Z,12.40
2018-05-10T16:45:00.062Z,12.30
2018-05-10T16:47:28.132Z,12.40
2018-05-10T16:49:56.160Z,12.30
2018-05-10T16:52:24.986Z,12.50
2018-05-10T16:54:53.029Z,12.40
2018-05-10T16:57:21.084Z,12.30
2018-05-10T16:59:49.136Z,12.40
2018-05-10T17:02:17.201Z,12.40
2018-05-10T17:04:45.273Z,12.30
2018-05-10T17:07:13.329Z,12.20
2018-05-10T17:09:41.373Z,12.20
2018-05-10T17:12:09.429Z,12.30
2018-05-10T17:14:38.220Z,12.40
2018-05-10T17:17:06.277Z,12.40
2018-05-10T17:19:35.080Z,12.20
2018-05-10T17:22:03.133Z,12.20
2018-05-10T17:24:31.184Z,12.10
2018-05-10T17:26:59.256Z,12.10
2018-05-10T17:29:27.298Z,12.10
2018-05-10T17:31:55.351Z,12.10
2018-05-10T17:34:23.388Z,12.10
2018-05-10T17:36:52.210Z,12.30
2018-05-10T17:39:20.244Z,12.30
2018-05-10T17:41:50.723Z,12.20
2018-05-10T17:44:18.681Z,12.10
2018-05-10T17:46:46.739Z,12.20
2018-05-10T17:49:14.813Z,12.10
2018-05-10T17:51:42.883Z,12.20
2018-05-10T17:54:10.931Z,12.20
2018-05-10T17:56:39.745Z,12.40
2018-05-10T17:59:08.601Z,12.50
2018-05-10T18:01:37.430Z,12.60
2018-05-10T18:04:05.466Z,12.60
2018-05-10T18:06:34.285Z,12.60
2018-05-10T18:09:02.373Z,12.50
2018-05-10T18:11:30.437Z,12.50
2018-05-10T18:13:58.501Z,12.60
2018-05-10T18:16:26.561Z,12.50
2018-05-10T18:18:54.599Z,12.40
2018-05-10T18:21:22.685Z,12.40
2018-05-10T18:23:51.508Z,12.50
2018-05-10T18:26:19.558Z,12.50
2018-05-10T18:28:47.605Z,12.40
2018-05-10T18:31:15.652Z,12.40
2018-05-10T18:33:43.710Z,12.40
2018-05-10T18:36:11.771Z,12.40
2018-05-10T18:38:39.828Z,12.30
2018-05-10T18:41:08.642Z,12.10
2018-05-10T18:43:36.698Z,12.10
2018-05-10T18:46:04.747Z,12.20
2018-05-10T18:48:32.813Z,12.20
2018-05-10T18:51:00.866Z,12.20
2018-05-10T18:53:29.698Z,12.20
2018-05-10T18:55:57.747Z,12.20
2018-05-10T18:58:25.793Z,12.30
2018-05-10T19:00:54.604Z,12.40
2018-05-10T19:03:22.656Z,12.30
2018-05-10T19:05:51.541Z,12.50
2018-05-10T19:08:20.360Z,12.50
2018-05-10T19:10:49.169Z,12.50
2018-05-10T19:13:17.218Z,12.50
2018-05-10T19:15:46.085Z,12.60
2018-05-10T19:18:14.905Z,12.80
2018-05-10T19:20:42.956Z,12.80
2018-05-10T19:23:11.033Z,12.90
2018-05-10T19:25:39.077Z,12.90
2018-05-10T19:28:07.893Z,13.00
2018-05-10T19:30:35.957Z,13.00
2018-05-10T19:33:04.012Z,13.00
2018-05-10T19:35:32.821Z,12.80
2018-05-10T19:38:00.892Z,12.80
2018-05-10T19:40:28.921Z,12.80
2018-05-10T19:42:56.974Z,12.90
2018-05-10T19:45:25.018Z,13.00
2018-05-10T19:47:53.061Z,13.10
2018-05-10T19:50:21.877Z,13.10
2018-05-10T19:52:50.700Z,13.20
2018-05-10T19:55:18.748Z,13.20
2018-05-10T19:57:46.792Z,13.20
2018-05-10T20:00:14.829Z,13.00
2018-05-10T20:02:42.895Z,13.00
2018-05-10T20:05:11.006Z,12.90
2018-05-10T20:07:39.066Z,12.90
2018-05-10T20:10:07.102Z,12.80
2018-05-10T20:12:35.161Z,12.80
2018-05-10T20:15:03.218Z,12.80
2018-05-10T20:17:31.272Z,12.80
2018-05-10T20:19:59.331Z,12.80
2018-05-10T20:22:27.361Z,12.80
2018-05-10T20:24:55.414Z,12.80
2018-05-10T20:27:23.454Z,13.00
2018-05-10T20:29:51.513Z,12.90
2018-05-10T20:32:19.579Z,12.90
2018-05-10T20:34:48.375Z,12.80
2018-05-10T20:37:16.408Z,12.80
2018-05-10T20:39:45.228Z,12.80
2018-05-10T20:42:13.273Z,12.80
2018-05-10T20:44:42.149Z,12.70
2018-05-10T20:47:10.153Z,12.70
2018-05-10T20:49:38.197Z,12.60
2018-05-10T20:52:06.290Z,12.60
2018-05-10T20:54:34.301Z,12.60
2018-05-10T20:57:02.349Z,12.60
2018-05-10T20:59:30.410Z,12.50
2018-05-10T21:01:58.461Z,12.50
2018-05-10T21:04:26.517Z,12.50
2018-05-10T21:06:54.560Z,12.60
2018-05-10T21:09:22.624Z,12.50
2018-05-10T21:11:50.676Z,12.60
2018-05-10T21:14:18.722Z,12.60
2018-05-10T21:16:46.756Z,12.60
2018-05-10T21:19:14.813Z,12.60
2018-05-10T21:21:42.865Z,12.60
2018-05-10T21:24:10.941Z,12.60
2018-05-10T21:26:38.992Z,12.60
2018-05-10T21:29:07.033Z,12.70
2018-05-10T21:31:35.077Z,12.70
2018-05-10T21:34:03.150Z,12.60
2018-05-10T21:36:31.188Z,12.60
2018-05-10T21:38:59.241Z,12.60
2018-05-10T21:41:27.290Z,12.70
2018-05-10T21:43:56.113Z,12.70
2018-05-10T21:46:24.154Z,12.70
2018-05-10T21:48:53.021Z,12.60
2018-05-10T21:51:21.069Z,12.60
2018-05-10T21:53:49.111Z,12.70
2018-05-10T21:56:17.917Z,12.70
2018-05-10T21:58:45.961Z,12.70
2018-05-10T22:01:14.013Z,12.90
2018-05-10T22:03:42.822Z,13.10
2018-05-10T22:06:10.864Z,13.10
2018-05-10T22:08:39.685Z,13.00
2018-05-10T22:11:07.722Z,13.00
2018-05-10T22:13:36.521Z,13.00
2018-05-10T22:16:05.336Z,13.00
2018-05-10T22:18:33.423Z,13.00
2018-05-10T22:21:02.185Z,12.80
2018-05-10T22:23:30.229Z,12.80
2018-05-10T22:25:59.056Z,12.80
2018-05-10T22:28:27.861Z,12.80
2018-05-10T22:30:55.957Z,12.80
2018-05-10T22:33:24.001Z,12.90
2018-05-10T22:35:52.057Z,12.70
2018-05-10T22:38:20.096Z,12.70
2018-05-10T22:40:48.909Z,12.50
2018-05-10T22:43:16.957Z,12.50
2018-05-10T22:45:45.771Z,12.50
2018-05-10T22:48:13.813Z,12.50
2018-05-10T22:50:42.654Z,12.50
2018-05-10T22:53:10.717Z,12.50
2018-05-10T22:55:38.734Z,12.40
2018-05-10T22:58:07.549Z,12.40
2018-05-10T23:00:36.810Z,12.40
2018-05-10T23:03:04.822Z,12.50
2018-05-10T23:05:32.961Z,12.50
2018-05-10T23:08:01.766Z,12.50
2018-05-10T23:10:30.581Z,12.40
2018-05-10T23:12:58.609Z,12.40
2018-05-10T23:15:27.441Z,12.40
2018-05-10T23:17:55.481Z,12.30
2018-05-10T23:20:24.293Z,12.30
2018-05-10T23:22:52.337Z,12.30
2018-05-10T23:25:21.153Z,12.40
2018-05-10T23:27:49.969Z,12.40
2018-05-10T23:30:18.109Z,12.40
2018-05-10T23:32:46.149Z,12.30
2018-05-10T23:35:14.600Z,12.20
2018-05-10T23:37:42.649Z,12.20
2018-05-10T23:40:10.710Z,12.20
2018-05-10T23:42:38.771Z,12.20
2018-05-10T23:45:06.815Z,12.20
2018-05-10T23:47:35.630Z,12.20
2018-05-10T23:50:03.668Z,12.20
2018-05-10T23:52:32.482Z,12.20
2018-05-10T23:55:00.513Z,12.10
2018-05-10T23:57:28.565Z,12.10
2018-05-10T23:59:56.617Z,12.10
